ASN logo
Last updated: 13 April 2021
Statuts:Préliminaire
Date:jeudi 21 septembre 2017
Heure:ca 21:16
Type/Sous-type:Silhouette image of generic C650 model; specific model in this crash may look slightly different
Cessna 650 Citation VII
Compagnie:Avione Jet
Immatriculation: TC-KON
Numéro de série: 650-7084
Année de Fabrication: 1998
Equipage:victimes: 0 / ŕ bord: 3
Passagers:victimes: 0 / ŕ bord: 1
Total:victimes: 0 / ŕ bord: 4
Dégats de l'appareil: Détruit
Conséquences: Written off (damaged beyond repair)
Lieu de l'accident:Istanbul-Atatürk International Airport (IST) (   Turquie)
Phase de vol: A l'atterrissage (LDG)
Nature:Affaires
Aéroport de départ:Istanbul-Atatürk International Airport (IST/LTBA), Turquie
Aéroport de destination:Ercan Airport (ECN/LCEN), Turquie
Détails:
A Cessna 650 Citation VII corporate jet was destroyed in an accident and post-impact fire during an attempted on landing at Istanbul-Atatürk International Airport in Turkey.
The aircraft departed Atatürk Airport about 21:05 local time, with destination Ercan. Shortly after takeoff a situation developed which forced the flight to return to the departure airport. The aircraft suffered a runway excursion while attempting to land on runway 35L. It crossed a concrete ditch and a post impact fire erupted. The two pilots, hostess and sole passenger survived the accident.

Sources:
» Airporthaber.com
» CNNTurk.com

METAR Weather report:
17:50 UTC / 20:50 local time:
LTBA 211750Z 04007KT 9999 VCTS SCT020CB BKN032 BKN090 23/18 Q1011 RETS NOSIG RMK RWY17L 04007KT 360V070 RWY05 02009KT 330V050 RWY23 04009KT

18:20 UTC / 21:20 local time:
LTBA 211820Z VRB07KT 9999 FEW020CB SCT032 BKN090 23/18 Q1011 NOSIG RMK RWY17L 05008KT 010V080 RWY05 02010KT RWY23 05009KT

18:46 UTC / 21:46 local time:
LTBA 211846Z 04009KT 330V110 6000 -SHRA VCTS SCT025CB BKN030 22/18 Q1011 NOSIG RMK RWY17L 05006KT 010V090 RWY05 04008KT 010V070 RWY23 05008KT 020V090


Photos

photo of Cessna-650-Citation-VII-TC-KON
accident date: 21-09-2017
type: Cessna 650 Citation VII
registration: TC-KON
photo of Cessna-650-Citation-VII-TC-KON
accident date: 21-09-2017
type: Cessna 650 Citation VII
registration: TC-KON
 

Video, social media

Plan
Ce plan montre l'aéroport de départ ainsi que la supposée destination du vol. La ligne fixe reliant les deux aéroports n'est pas le plan de vol exact.
La distance entre Istanbul-Atatürk International Airport et Ercan Airport est de 760 km (475 miles).

Les informations ci-dessus ne représentent pas l'opinion de la 'Flight Safety Foundation' ou de 'Aviation Safety Network' sur les causes de l'accident. Ces informations prélimimaires sont basées sur les faits tel qu'ils sont connus ŕ ce jour.
languages: languages

Share